createdAt,value
2023-05-24T00:00:25.314Z,98.48
2023-05-24T00:02:52.600Z,98.08
2023-05-24T00:05:19.873Z,97.89
2023-05-24T00:07:47.542Z,98.24
2023-05-24T00:10:15.092Z,98.48
2023-05-24T00:12:42.337Z,98.82
2023-05-24T00:15:09.796Z,98.78
2023-05-24T00:17:41.281Z,98.39
2023-05-24T00:20:11.343Z,98.37
2023-05-24T00:22:38.883Z,98.35
2023-05-24T00:25:06.999Z,98.22
2023-05-24T00:27:34.645Z,98.40
2023-05-24T00:30:02.213Z,98.25
2023-05-24T00:32:30.696Z,98.13
2023-05-24T00:34:57.895Z,98.32
2023-05-24T00:37:26.472Z,98.06
2023-05-24T00:39:53.907Z,97.93
2023-05-24T00:42:21.290Z,97.59
2023-05-24T00:44:48.715Z,97.90
2023-05-24T00:47:16.450Z,98.22
2023-05-24T00:49:43.647Z,98.38
2023-05-24T00:52:10.796Z,98.52
2023-05-24T00:54:40.742Z,99.02
2023-05-24T00:57:08.048Z,99.00
2023-05-24T00:59:35.478Z,98.75
2023-05-24T01:02:05.315Z,98.62
2023-05-24T01:04:33.347Z,98.62
2023-05-24T01:07:21.610Z,98.53
2023-05-24T01:10:10.748Z,98.39
2023-05-24T01:13:04.596Z,98.37
2023-05-24T01:15:43.766Z,98.68
2023-05-24T01:18:17.743Z,99.13
2023-05-24T01:20:45.529Z,99.17
2023-05-24T01:23:32.335Z,98.84
2023-05-24T01:26:09.412Z,99.18
2023-05-24T01:28:36.932Z,99.28
2023-05-24T01:31:04.512Z,99.05
2023-05-24T01:33:32.738Z,98.86
2023-05-24T01:36:00.018Z,98.52
2023-05-24T01:38:27.362Z,98.36
2023-05-24T01:40:59.466Z,98.00
2023-05-24T01:43:40.416Z,97.53
2023-05-24T01:46:23.117Z,97.82
2023-05-24T01:49:21.461Z,98.20
2023-05-24T01:51:58.708Z,98.24
2023-05-24T01:54:26.764Z,97.93
2023-05-24T01:56:55.496Z,98.13
2023-05-24T01:59:23.014Z,98.95
2023-05-24T02:01:50.431Z,99.30
2023-05-24T02:04:18.541Z,99.21
2023-05-24T02:06:46.168Z,98.74
2023-05-24T02:09:13.707Z,98.52
2023-05-24T02:11:40.957Z,98.96
2023-05-24T02:14:08.174Z,99.01
2023-05-24T02:16:42.649Z,98.82
2023-05-24T02:19:10.373Z,99.02
2023-05-24T02:21:38.591Z,99.17
2023-05-24T02:24:07.187Z,99.48
2023-05-24T02:26:34.427Z,99.73
2023-05-24T02:29:01.878Z,99.94
2023-05-24T02:31:29.752Z,99.75
2023-05-24T02:33:57.874Z,99.28
2023-05-24T02:36:25.043Z,99.50
2023-05-24T02:38:52.302Z,99.42
2023-05-24T02:41:19.803Z,99.70
2023-05-24T02:43:47.604Z,100.00
2023-05-24T02:46:15.188Z,100.00
2023-05-24T02:48:42.689Z,100.00
2023-05-24T02:51:10.288Z,100.00
2023-05-24T02:53:38.032Z,100.00
2023-05-24T02:56:05.253Z,100.00
2023-05-24T02:58:33.541Z,100.00
2023-05-24T03:01:01.764Z,100.00
2023-05-24T03:03:30.907Z,100.00
2023-05-24T03:05:58.597Z,100.00
2023-05-24T03:08:25.761Z,100.00
2023-05-24T03:10:53.937Z,100.00
2023-05-24T03:13:22.639Z,100.00
2023-05-24T03:15:50.074Z,100.00
2023-05-24T03:18:17.421Z,100.00
2023-05-24T03:20:45.743Z,100.00
2023-05-24T03:23:15.070Z,100.00
2023-05-24T03:25:42.814Z,100.00
2023-05-24T03:28:10.607Z,100.00
2023-05-24T03:30:37.894Z,100.00
2023-05-24T03:33:05.582Z,100.00
2023-05-24T03:35:33.509Z,100.00
2023-05-24T03:38:00.770Z,100.00
2023-05-24T03:40:32.572Z,100.00
2023-05-24T03:43:07.298Z,100.00
2023-05-24T03:45:43.828Z,100.00
2023-05-24T03:48:11.382Z,100.00
2023-05-24T03:50:38.923Z,100.00
2023-05-24T03:53:06.266Z,100.00
2023-05-24T03:55:33.420Z,100.00
2023-05-24T03:58:00.585Z,100.00
2023-05-24T04:00:28.809Z,100.00
2023-05-24T04:02:56.322Z,100.00
2023-05-24T04:05:29.741Z,100.00
2023-05-24T04:07:56.983Z,100.00
2023-05-24T04:10:24.298Z,100.00
2023-05-24T04:12:51.852Z,100.00
2023-05-24T04:15:18.975Z,100.00
2023-05-24T04:17:46.737Z,100.00
2023-05-24T04:20:14.391Z,100.00
2023-05-24T04:22:42.148Z,100.00
2023-05-24T04:25:10.222Z,100.00
2023-05-24T04:27:37.726Z,100.00
2023-05-24T04:30:05.773Z,100.00
2023-05-24T04:32:33.891Z,100.00
2023-05-24T04:35:02.854Z,100.00
2023-05-24T04:37:31.837Z,100.00
2023-05-24T04:39:59.115Z,100.00
2023-05-24T04:42:27.489Z,100.00
2023-05-24T04:44:54.606Z,100.00
2023-05-24T04:47:21.839Z,100.00
2023-05-24T04:49:49.743Z,100.00
2023-05-24T04:52:17.484Z,100.00
2023-05-24T04:54:44.728Z,100.00
2023-05-24T04:57:11.912Z,100.00
2023-05-24T04:59:39.262Z,100.00
2023-05-24T05:02:06.732Z,100.00
2023-05-24T05:04:33.944Z,100.00
2023-05-24T05:07:01.119Z,100.00
2023-05-24T05:09:28.459Z,100.00
2023-05-24T05:11:55.751Z,100.00
2023-05-24T05:14:23.316Z,100.00
2023-05-24T05:16:50.705Z,100.00
2023-05-24T05:19:18.048Z,100.00
2023-05-24T05:21:45.589Z,100.00
2023-05-24T05:24:12.808Z,100.00
2023-05-24T05:26:41.809Z,100.00
2023-05-24T05:29:09.141Z,100.00
2023-05-24T05:31:37.087Z,100.00
2023-05-24T05:34:04.315Z,100.00
2023-05-24T05:36:32.424Z,100.00
2023-05-24T05:38:59.758Z,100.00
2023-05-24T05:41:26.975Z,100.00
2023-05-24T05:43:54.093Z,100.00
2023-05-24T05:46:22.337Z,100.00
2023-05-24T05:48:50.705Z,100.00
2023-05-24T05:51:17.843Z,100.00
2023-05-24T05:53:45.053Z,99.99
2023-05-24T05:56:12.397Z,99.59
2023-05-24T05:58:39.628Z,99.67
2023-05-24T06:01:06.916Z,99.66
2023-05-24T06:03:34.426Z,99.33
2023-05-24T06:06:01.871Z,99.28
2023-05-24T06:08:34.941Z,98.70
2023-05-24T06:11:02.484Z,98.48
2023-05-24T06:13:31.383Z,97.87
2023-05-24T06:15:59.101Z,97.82
2023-05-24T06:18:27.753Z,97.53
2023-05-24T06:20:55.166Z,97.54
2023-05-24T06:23:23.492Z,97.84
2023-05-24T06:25:50.863Z,97.07
2023-05-24T06:28:18.184Z,96.45
2023-05-24T06:30:45.905Z,96.15
2023-05-24T06:33:13.391Z,96.07
2023-05-24T06:35:40.813Z,96.50
2023-05-24T06:38:09.664Z,95.65
2023-05-24T06:40:37.134Z,95.88
2023-05-24T06:43:04.907Z,96.27
2023-05-24T06:45:34.348Z,96.29
2023-05-24T06:48:01.775Z,95.85
2023-05-24T06:50:29.136Z,95.09
2023-05-24T06:52:56.606Z,94.97
2023-05-24T06:55:23.784Z,94.16
2023-05-24T06:57:51.221Z,94.20
2023-05-24T07:00:18.875Z,93.82
2023-05-24T07:02:46.170Z,93.55
2023-05-24T07:05:13.627Z,93.83
2023-05-24T07:07:42.502Z,93.00
2023-05-24T07:10:10.896Z,93.45
2023-05-24T07:12:38.410Z,94.99
2023-05-24T07:15:07.236Z,95.70
2023-05-24T07:17:34.975Z,98.11
2023-05-24T07:20:02.604Z,100.00
2023-05-24T07:22:31.705Z,100.00
2023-05-24T07:24:59.049Z,100.00
2023-05-24T07:27:26.482Z,100.00
2023-05-24T07:29:54.258Z,100.00
2023-05-24T07:32:21.696Z,100.00
2023-05-24T07:34:49.022Z,100.00
2023-05-24T07:37:17.626Z,100.00
2023-05-24T07:39:45.002Z,100.00
2023-05-24T07:42:12.319Z,100.00
2023-05-24T07:44:40.046Z,100.00
2023-05-24T07:47:07.260Z,100.00
2023-05-24T07:49:34.630Z,100.00
2023-05-24T07:52:04.079Z,100.00
2023-05-24T07:54:32.010Z,100.00
2023-05-24T07:56:59.686Z,100.00
2023-05-24T07:59:27.263Z,100.00
2023-05-24T08:01:54.473Z,99.54
2023-05-24T08:04:22.011Z,93.14
2023-05-24T08:06:49.386Z,91.21
2023-05-24T08:09:16.752Z,91.20
2023-05-24T08:11:44.277Z,93.26
2023-05-24T08:14:11.863Z,93.40
2023-05-24T08:16:39.551Z,92.35
2023-05-24T08:19:07.263Z,91.75
2023-05-24T08:21:34.750Z,91.75
2023-05-24T08:24:02.042Z,90.02
2023-05-24T08:26:29.418Z,90.79
2023-05-24T08:28:56.726Z,89.57
2023-05-24T08:31:24.579Z,90.85
2023-05-24T08:33:52.910Z,89.18
2023-05-24T08:36:20.144Z,88.56
2023-05-24T08:38:47.666Z,90.28
2023-05-24T08:41:15.088Z,88.83
2023-05-24T08:43:42.417Z,88.82
2023-05-24T08:46:09.595Z,88.86
2023-05-24T08:48:46.113Z,86.72
2023-05-24T08:51:17.019Z,85.80
2023-05-24T08:53:48.719Z,84.92
2023-05-24T08:56:17.867Z,80.35
2023-05-24T08:58:47.377Z,79.81
2023-05-24T09:01:15.442Z,78.67
2023-05-24T09:03:43.816Z,77.73
2023-05-24T09:06:12.259Z,75.20
2023-05-24T09:08:42.396Z,76.09
2023-05-24T09:11:11.651Z,75.22
2023-05-24T09:13:39.053Z,74.13
2023-05-24T09:16:06.567Z,75.90
2023-05-24T09:18:34.059Z,75.43
2023-05-24T09:21:01.422Z,74.55
2023-05-24T09:23:29.025Z,74.75
2023-05-24T09:25:57.064Z,76.88
2023-05-24T09:28:25.179Z,77.13
2023-05-24T09:31:00.327Z,75.84
2023-05-24T09:33:32.736Z,73.45
2023-05-24T09:36:01.448Z,73.44
2023-05-24T09:38:29.824Z,74.37
2023-05-24T09:41:07.563Z,72.73
2023-05-24T09:43:36.353Z,74.94
2023-05-24T09:46:04.792Z,75.21
2023-05-24T09:48:32.459Z,76.78
2023-05-24T09:51:04.454Z,76.67
2023-05-24T09:53:34.008Z,76.18
2023-05-24T09:56:04.035Z,76.36
2023-05-24T09:58:35.013Z,73.58
2023-05-24T10:01:11.087Z,75.78
2023-05-24T10:03:38.657Z,76.60
2023-05-24T10:06:08.424Z,75.59
2023-05-24T10:08:36.797Z,75.42
2023-05-24T10:11:04.967Z,76.22
2023-05-24T10:13:36.616Z,76.54
2023-05-24T10:16:04.485Z,74.90
2023-05-24T10:18:32.052Z,74.66
2023-05-24T10:21:01.030Z,75.15
2023-05-24T10:23:32.767Z,76.90
2023-05-24T10:26:04.136Z,78.94
2023-05-24T10:28:31.392Z,79.50
2023-05-24T10:31:04.941Z,80.62
2023-05-24T10:33:32.877Z,82.02
2023-05-24T10:36:00.126Z,84.71
2023-05-24T10:38:27.592Z,87.24
2023-05-24T10:40:54.951Z,88.85
2023-05-24T10:43:22.597Z,89.56
2023-05-24T10:45:50.774Z,90.10
2023-05-24T10:48:29.288Z,90.84
2023-05-24T10:50:57.524Z,91.27
2023-05-24T10:53:27.402Z,92.09
2023-05-24T10:56:04.183Z,92.88
2023-05-24T10:58:35.488Z,94.01
2023-05-24T11:01:03.569Z,94.18
2023-05-24T11:03:34.880Z,93.89
2023-05-24T11:06:03.194Z,94.83
2023-05-24T11:08:35.671Z,95.01
2023-05-24T11:11:24.416Z,96.09
2023-05-24T11:13:56.916Z,97.84
2023-05-24T11:16:38.812Z,97.15
2023-05-24T11:19:20.660Z,96.05
2023-05-24T11:21:49.238Z,97.21
2023-05-24T11:24:18.697Z,98.20
2023-05-24T11:26:46.470Z,98.81
2023-05-24T11:29:17.781Z,100.00
2023-05-24T11:31:50.807Z,100.00
2023-05-24T11:34:21.712Z,100.00
2023-05-24T11:36:49.105Z,99.60
2023-05-24T11:39:16.497Z,98.63
2023-05-24T11:41:44.125Z,99.88
2023-05-24T11:44:12.395Z,100.00
2023-05-24T11:46:39.959Z,99.22
2023-05-24T11:49:07.658Z,99.03
2023-05-24T11:51:35.894Z,98.93
2023-05-24T11:54:03.196Z,98.57
2023-05-24T11:56:33.211Z,99.35
2023-05-24T11:59:38.204Z,98.21
2023-05-24T12:02:06.236Z,98.66
2023-05-24T12:04:34.809Z,98.50
2023-05-24T12:07:02.380Z,98.29
2023-05-24T12:09:29.851Z,96.25
2023-05-24T12:11:58.686Z,95.02
2023-05-24T12:14:33.167Z,94.76
2023-05-24T12:17:01.394Z,94.27
2023-05-24T12:19:36.036Z,92.24
2023-05-24T12:22:05.909Z,91.69
2023-05-24T12:24:33.515Z,92.34
2023-05-24T12:27:02.272Z,92.73
2023-05-24T12:29:36.841Z,92.94
2023-05-24T12:32:04.491Z,92.98
2023-05-24T12:34:32.238Z,92.99
2023-05-24T12:36:59.927Z,92.56
2023-05-24T12:39:34.253Z,92.41
2023-05-24T12:42:02.018Z,91.79
2023-05-24T12:44:31.474Z,91.43
2023-05-24T12:46:59.159Z,90.14
2023-05-24T12:49:27.043Z,89.11
2023-05-24T12:51:55.549Z,88.16
2023-05-24T12:54:24.145Z,88.05
2023-05-24T12:56:54.154Z,86.29
2023-05-24T12:59:22.992Z,85.21
2023-05-24T13:01:53.508Z,84.75
2023-05-24T13:04:22.204Z,82.66
2023-05-24T13:06:49.715Z,80.93
2023-05-24T13:09:21.835Z,80.60
2023-05-24T13:11:49.711Z,80.94
2023-05-24T13:14:18.441Z,80.75
2023-05-24T13:16:46.143Z,80.49
2023-05-24T13:19:13.798Z,80.45
2023-05-24T13:21:41.031Z,81.97
2023-05-24T13:24:08.761Z,81.42
2023-05-24T13:26:38.196Z,80.63
2023-05-24T13:31:40.865Z,80.41
2023-05-24T13:34:09.293Z,80.92
2023-05-24T13:36:38.396Z,80.31
2023-05-24T13:41:37.910Z,79.71
2023-05-24T13:44:05.336Z,79.65
2023-05-24T13:46:32.976Z,80.22
2023-05-24T13:49:00.339Z,80.61
2023-05-24T13:51:30.784Z,80.35
2023-05-24T13:53:58.096Z,80.39
2023-05-24T13:56:26.064Z,78.77
2023-05-24T13:58:53.686Z,80.61
2023-05-24T14:01:21.212Z,79.32
2023-05-24T14:03:48.465Z,79.57
2023-05-24T14:06:15.809Z,80.01
2023-05-24T14:08:43.046Z,79.49
2023-05-24T14:11:12.080Z,77.75
2023-05-24T14:16:09.778Z,76.67
2023-05-24T14:18:37.986Z,74.66
2023-05-24T14:21:05.274Z,74.58
2023-05-24T14:23:33.108Z,75.43
2023-05-24T14:26:01.016Z,75.96
2023-05-24T14:28:28.718Z,75.44
2023-05-24T14:30:56.313Z,73.94
2023-05-24T14:33:23.752Z,72.67
2023-05-24T14:35:51.796Z,73.32
2023-05-24T14:38:19.448Z,73.60
2023-05-24T14:40:48.371Z,74.52
2023-05-24T14:43:16.317Z,75.10
2023-05-24T14:45:43.910Z,73.20
2023-05-24T14:48:12.329Z,72.15
2023-05-24T14:50:40.434Z,72.05
2023-05-24T14:53:11.959Z,73.55
2023-05-24T14:55:41.775Z,72.97
2023-05-24T14:58:09.611Z,72.67
2023-05-24T15:00:37.320Z,72.43
2023-05-24T15:03:06.207Z,72.37
2023-05-24T15:05:35.059Z,72.92
2023-05-24T15:08:02.468Z,75.35
2023-05-24T15:10:29.912Z,75.83
2023-05-24T15:12:57.283Z,73.07
2023-05-24T15:15:24.874Z,73.67
2023-05-24T15:17:52.659Z,73.75
2023-05-24T15:20:20.176Z,74.02
2023-05-24T15:22:47.544Z,74.16
2023-05-24T15:25:14.945Z,73.79
2023-05-24T15:27:42.324Z,75.14
2023-05-24T15:30:09.800Z,74.66
2023-05-24T15:32:37.182Z,74.34
2023-05-24T15:35:04.698Z,74.91
2023-05-24T15:37:32.396Z,74.98
2023-05-24T15:39:59.727Z,76.14
2023-05-24T15:42:27.114Z,75.17
2023-05-24T15:44:54.689Z,75.96
2023-05-24T15:47:22.495Z,76.57
2023-05-24T15:49:50.150Z,76.75
2023-05-24T15:52:18.068Z,75.53
2023-05-24T15:54:46.125Z,75.10
2023-05-24T15:57:14.203Z,75.23
2023-05-24T15:59:41.474Z,75.63
2023-05-24T16:02:08.827Z,75.63
2023-05-24T16:04:36.875Z,75.49
2023-05-24T16:07:04.729Z,76.37
2023-05-24T16:09:32.217Z,76.04
2023-05-24T16:12:00.909Z,75.47
2023-05-24T16:14:29.985Z,75.84
2023-05-24T16:17:00.421Z,75.87
2023-05-24T16:19:30.511Z,76.03
2023-05-24T16:21:58.276Z,75.58
2023-05-24T16:24:25.822Z,76.70
2023-05-24T16:26:52.985Z,76.85
2023-05-24T16:29:21.296Z,77.21
2023-05-24T16:31:48.586Z,77.60
2023-05-24T16:34:16.546Z,78.94
2023-05-24T16:36:45.965Z,80.28
2023-05-24T16:39:13.572Z,80.30
2023-05-24T16:41:41.538Z,80.29
2023-05-24T16:44:08.844Z,80.92
2023-05-24T16:46:36.952Z,80.74
2023-05-24T16:49:04.317Z,81.06
2023-05-24T16:51:32.019Z,80.12
2023-05-24T16:53:59.467Z,80.70
2023-05-24T16:56:27.368Z,81.10
2023-05-24T16:58:54.537Z,80.91
2023-05-24T17:01:23.948Z,82.36
2023-05-24T17:03:51.171Z,83.04
2023-05-24T17:06:18.534Z,82.77
2023-05-24T17:08:45.681Z,82.75
2023-05-24T17:11:14.792Z,81.99
2023-05-24T17:13:41.973Z,81.42
2023-05-24T17:16:10.914Z,80.83
2023-05-24T17:18:38.476Z,80.27
2023-05-24T17:21:05.938Z,80.63
2023-05-24T17:23:34.059Z,80.30
2023-05-24T17:26:02.636Z,80.75
2023-05-24T17:28:30.580Z,81.42
2023-05-24T17:30:58.410Z,81.47
2023-05-24T17:33:28.297Z,81.41
2023-05-24T17:36:02.781Z,81.30
2023-05-24T17:38:33.249Z,81.83
2023-05-24T17:41:01.103Z,82.30
2023-05-24T17:43:29.239Z,82.50
2023-05-24T17:46:04.036Z,82.87
2023-05-24T17:48:38.913Z,83.50
2023-05-24T17:51:07.793Z,84.16
2023-05-24T17:53:36.394Z,84.23
2023-05-24T17:56:04.183Z,84.47
2023-05-24T17:58:36.396Z,84.74
2023-05-24T18:01:08.491Z,85.35
2023-05-24T18:03:37.515Z,85.55
2023-05-24T18:06:06.772Z,85.51
2023-05-24T18:08:35.484Z,85.59
2023-05-24T18:11:08.689Z,85.81
2023-05-24T18:13:42.985Z,86.40
2023-05-24T18:16:10.803Z,86.72
2023-05-24T18:18:38.741Z,86.79
2023-05-24T18:21:06.374Z,86.71
2023-05-24T18:23:37.606Z,87.07
2023-05-24T18:26:09.371Z,87.50
2023-05-24T18:28:37.671Z,87.54
2023-05-24T18:31:10.411Z,87.58
2023-05-24T18:33:38.506Z,87.67
2023-05-24T18:36:08.159Z,87.57
2023-05-24T18:38:36.157Z,87.49
2023-05-24T18:41:05.951Z,87.36
2023-05-24T18:43:33.837Z,86.46
2023-05-24T18:46:01.644Z,85.72
2023-05-24T18:48:29.237Z,85.68
2023-05-24T18:50:56.723Z,85.34
2023-05-24T18:53:24.056Z,84.96
2023-05-24T18:55:51.514Z,85.66
2023-05-24T18:58:18.885Z,86.10
2023-05-24T19:00:46.203Z,86.36
2023-05-24T19:03:13.781Z,86.97
2023-05-24T19:05:43.888Z,86.83
2023-05-24T19:08:12.086Z,87.15
2023-05-24T19:10:39.270Z,87.50
2023-05-24T19:13:06.862Z,87.50
2023-05-24T19:15:37.529Z,88.12
2023-05-24T19:18:06.080Z,87.61
2023-05-24T19:20:33.679Z,87.52
2023-05-24T19:23:01.506Z,87.62
2023-05-24T19:25:29.009Z,88.93
2023-05-24T19:27:59.778Z,89.09
2023-05-24T19:30:28.117Z,88.46
2023-05-24T19:32:55.595Z,89.04
2023-05-24T19:35:22.919Z,89.96
2023-05-24T19:37:50.813Z,90.30
2023-05-24T19:40:18.166Z,90.14
2023-05-24T19:42:45.759Z,90.16
2023-05-24T19:45:13.556Z,89.75
2023-05-24T19:47:41.409Z,90.86
2023-05-24T19:50:09.189Z,90.81
2023-05-24T19:52:36.865Z,90.97
2023-05-24T19:55:04.583Z,90.81
2023-05-24T19:57:31.920Z,90.81
2023-05-24T19:59:59.070Z,90.74
2023-05-24T20:02:26.787Z,90.68
2023-05-24T20:04:54.610Z,90.75
2023-05-24T20:07:22.150Z,90.63
2023-05-24T20:09:49.977Z,91.24
2023-05-24T20:12:17.160Z,91.77
2023-05-24T20:14:44.907Z,91.62
2023-05-24T20:17:12.158Z,91.52
2023-05-24T20:19:39.367Z,91.55
2023-05-24T20:22:06.702Z,91.75
2023-05-24T20:24:34.099Z,91.71
2023-05-24T20:27:02.388Z,91.96
2023-05-24T20:29:30.611Z,91.68
2023-05-24T20:31:57.887Z,91.71
2023-05-24T20:34:25.264Z,92.11
2023-05-24T20:36:52.752Z,92.19
2023-05-24T20:39:19.946Z,92.46
2023-05-24T20:41:47.454Z,92.67
2023-05-24T20:44:14.857Z,92.68
2023-05-24T20:46:42.663Z,93.63
2023-05-24T20:49:09.857Z,93.69
2023-05-24T20:51:37.092Z,93.82
2023-05-24T20:54:04.786Z,94.05
2023-05-24T20:56:33.110Z,94.21
2023-05-24T20:59:02.212Z,94.08
2023-05-24T21:01:29.767Z,94.29
2023-05-24T21:03:57.082Z,94.54
2023-05-24T21:06:25.733Z,94.13
2023-05-24T21:08:52.884Z,94.02
2023-05-24T21:11:20.159Z,94.06
2023-05-24T21:13:47.444Z,93.91
2023-05-24T21:16:15.008Z,93.94
2023-05-24T21:18:42.331Z,93.91
2023-05-24T21:21:11.495Z,94.26
2023-05-24T21:23:38.992Z,94.66
2023-05-24T21:26:06.323Z,94.93
2023-05-24T21:28:33.818Z,95.13
2023-05-24T21:31:01.085Z,95.60
2023-05-24T21:33:28.612Z,95.65
2023-05-24T21:35:56.152Z,95.65
2023-05-24T21:38:24.374Z,95.72
2023-05-24T21:40:51.801Z,96.03
2023-05-24T21:43:19.378Z,96.74
2023-05-24T21:45:47.036Z,96.47
2023-05-24T21:48:14.177Z,96.46
2023-05-24T21:50:41.729Z,96.10
2023-05-24T21:53:09.254Z,96.35
2023-05-24T21:55:36.983Z,96.28
2023-05-24T21:58:04.176Z,96.34
2023-05-24T22:00:31.965Z,96.20
2023-05-24T22:02:59.188Z,95.89
2023-05-24T22:05:27.977Z,96.16
2023-05-24T22:07:55.738Z,96.40
2023-05-24T22:10:22.993Z,96.47
2023-05-24T22:12:50.642Z,96.83
2023-05-24T22:15:17.846Z,97.06
2023-05-24T22:17:45.394Z,96.66
2023-05-24T22:20:13.374Z,96.98
2023-05-24T22:22:48.825Z,97.20
2023-05-24T22:25:20.761Z,97.16
2023-05-24T22:27:51.340Z,97.27
2023-05-24T22:30:19.613Z,97.28
2023-05-24T22:32:47.060Z,96.74
2023-05-24T22:35:14.561Z,96.05
2023-05-24T22:37:42.311Z,95.97
2023-05-24T22:40:09.742Z,95.92
2023-05-24T22:42:37.719Z,96.30
2023-05-24T22:45:05.517Z,96.42
2023-05-24T22:47:33.486Z,96.54
2023-05-24T22:50:02.211Z,96.72
2023-05-24T22:52:30.462Z,96.87
2023-05-24T22:54:57.786Z,96.92
2023-05-24T22:57:24.995Z,96.64
2023-05-24T22:59:52.192Z,96.43
2023-05-24T23:02:19.540Z,96.25
2023-05-24T23:04:47.561Z,96.41
2023-05-24T23:07:15.572Z,96.64
2023-05-24T23:09:43.225Z,96.78
2023-05-24T23:12:11.097Z,97.08
2023-05-24T23:14:39.502Z,97.13
2023-05-24T23:17:13.459Z,97.34
2023-05-24T23:19:45.199Z,97.74
2023-05-24T23:22:14.028Z,98.26
2023-05-24T23:24:42.689Z,98.53
2023-05-24T23:27:10.211Z,98.43
2023-05-24T23:29:40.641Z,98.12
2023-05-24T23:32:08.294Z,98.05
2023-05-24T23:34:36.330Z,98.20
2023-05-24T23:37:04.474Z,98.49
2023-05-24T23:39:31.942Z,98.25
2023-05-24T23:41:59.245Z,95.68
2023-05-24T23:44:26.586Z,94.71
2023-05-24T23:46:53.864Z,93.13
2023-05-24T23:49:22.476Z,94.75
2023-05-24T23:51:50.152Z,95.11
2023-05-24T23:54:19.273Z,95.82
2023-05-24T23:56:46.921Z,96.65
2023-05-24T23:59:16.001Z,96.26
